Accueil
METAR-TAF:

METAR-TAF

Aéroports :

Lucius D. Clay Kaserne

Wiesbaden, Allemagne

latitude: 50-03N, longitude: 008-20E, altitude: 140 m

Observation

Le bulletin a été fait il y a 29 minutes, à 00:56 UTC
Vent calme
Température 17°C
Humidité 68%
Pression 1013 hPa
Visibilité 10 km ou plus
Ciel clair

METAR: ETOU 170056Z AUTO 00000KT 9999 CLR 17/11 A2992 RMK AO2 SLP128 T01680111 $

Heure: 03:25 (01:25 UTC)

Prévision

Le bulletin a été fait il y a 6 heures et 13 minutes, à 19:12 UTC
Prévision valable du 16 à 19 UTC au 18 à 01 UTC
Vent 6 kt de direction variable
Visibilité 10 km ou plus
Quelques nuages à une hauteur de 12000 ft
Evoluant progressivement
du 17 à 09 UTC au 17 à 10 UTC
Vent 9 kt de ouest/nord-ouest
Visibilité 10 km ou plus
Quelques nuages à une hauteur de 10000 ft

TAF: ETOU 161912Z 1619/1801 VRB06KT 9999 FEW120 QNH2986INS BECMG 1709/1710 30009KT 9999 FEW100 QNH2994INS TX30/1714Z TN14/1704Z

Observations et prévisions météorologiques de plus de 4000 aéroports (messages METAR et TAF).

Les stations disponibles sont représentées par des disques jaunes et rouges sur la carte.

Passer la souris dessus pour voir le nom de la station.

Cliquer dessus pour voir les observations et prévisions météorologiques.

Pour changer de carte: cliquez sur les boutons verts avec une croix noire pour zoomer, sur le bouton vert avec un tiret pour effectuer un zoom arrière, ou sur les flèches vertes pour les cartes adjacentes.


METAR-TAF: